Time;durP1;ratioP1;P1;durP2;ratioP2;P2;SDS_P1;SDS_P2;PMS_P1;PMS_P2;Temp;Humidity;BMP_temperature;BMP_pressure;BME280_temperature;BME280_humidity;BME280_pressure;Samples;Min_cycle;Max_cycle;Signal;HPM_P1;HPM_P2
2021/09/02 00:36:56;;;;;;;13.25;8.13;;;14.40;99.90;;;8.90;97.56;102399.44;2551659;30;136841;-40
2021/09/02 00:39:23;;;;;;;15.65;7.80;;;10.70;99.90;;;8.86;97.08;102395.34;2568347;30;137687;-39
2021/09/02 00:41:51;;;;;;;12.32;7.35;;;10.50;99.90;;;8.83;97.03;102392.94;2569086;30;137406;-39
2021/09/02 00:44:40;;;;;;;13.07;7.80;;;10.50;99.90;;;8.77;96.86;102389.00;2569460;30;138371;-38
2021/09/02 00:47:20;;;;;;;;;;;10.40;99.90;;;8.74;96.68;102392.06;2569012;30;137760;-40
2021/09/02 00:49:48;;;;;;;14.10;6.40;;;10.40;99.90;;;8.71;96.59;102392.38;2569043;30;137323;-39
2021/09/02 00:52:27;;;;;;;14.02;7.18;;;10.40;99.90;;;8.67;96.57;102386.41;2569088;30;137922;-40
2021/09/02 00:54:57;;;;;;;;;;;10.30;99.90;;;8.65;96.59;102387.59;2569630;30;137639;-39
2021/09/02 00:57:27;;;;;;;15.52;7.22;;;10.30;99.90;;;8.60;96.82;102396.22;2568395;30;137502;-39
2021/09/02 01:00:20;;;;;;;16.13;7.97;;;10.30;99.90;;;8.58;96.74;102392.81;2569612;30;138159;-40
2021/09/02 01:02:49;;;;;;;13.38;7.50;;;10.20;99.90;;;8.55;96.75;102385.81;2570259;30;138336;-40
2021/09/02 01:05:22;;;;;;;11.93;6.70;;;10.20;99.90;;;8.49;96.95;102387.34;2568723;30;136707;-39
2021/09/02 01:07:50;;;;;;;11.45;6.35;;;10.20;99.90;;;8.50;97.44;102390.91;2567827;30;137333;-40
2021/09/02 01:10:18;;;;;;;12.75;6.82;;;10.10;99.90;;;8.47;97.50;102397.47;2568118;30;137605;-39
2021/09/02 01:12:48;;;;;;;;;;;10.10;99.90;;;8.46;97.51;102397.63;2569451;30;138590;-40
2021/09/02 01:15:20;;;;;;;12.63;6.45;;;10.10;99.90;;;8.45;97.50;102391.34;2570138;30;137991;-40
2021/09/02 01:17:55;;;;;;;12.82;6.53;;;10.10;99.90;;;8.45;97.69;102394.06;2570144;30;138980;-39
2021/09/02 01:20:29;;;;;;;12.00;6.82;;;10.10;99.90;;;8.43;97.58;102390.63;2567329;30;137705;-39
2021/09/02 01:23:01;;;;;;;12.70;6.70;;;10.10;99.90;;;8.40;97.75;102385.53;2570154;30;139077;-39
2021/09/02 01:25:36;;;;;;;11.45;6.50;;;10.10;99.90;;;8.40;97.99;102384.69;2571727;30;137336;-40
2021/09/02 01:28:08;;;;;;;12.23;6.70;;;10.10;99.90;;;8.37;97.98;102387.72;2569096;30;138755;-40
2021/09/02 01:30:37;;;;;;;11.25;6.03;;;10.00;99.90;;;8.32;97.93;102385.47;2570781;30;136767;-40
2021/09/02 01:33:08;;;;;;;10.52;5.90;;;10.00;99.90;;;8.28;97.82;102390.38;2569341;30;138167;-40
2021/09/02 01:35:36;;;;;;;12.35;6.57;;;10.00;99.90;;;8.22;97.83;102388.28;2569951;30;138266;-40
2021/09/02 01:38:07;;;;;;;11.95;6.13;;;9.90;99.90;;;8.22;97.93;102396.44;2569086;30;139280;-40
2021/09/02 01:40:44;;;;;;;11.77;6.50;;;9.90;99.90;;;8.19;97.99;102397.59;2569110;30;137718;-39
2021/09/02 01:43:16;;;;;;;11.35;6.47;;;9.90;99.90;;;8.17;98.19;102396.91;2570458;30;138704;-39
2021/09/02 01:45:45;;;;;;;12.40;6.22;;;9.80;99.90;;;8.15;98.49;102393.50;2566994;30;137459;-39
2021/09/02 01:48:12;;;;;;;12.18;6.18;;;9.80;99.90;;;8.13;98.24;102391.97;2568448;30;138409;-39
2021/09/02 01:50:41;;;;;;;9.25;5.72;;;9.80;99.90;;;8.10;98.17;102390.41;2568860;30;137498;-40
2021/09/02 01:53:13;;;;;;;11.40;5.78;;;9.80;99.90;;;8.08;98.33;102389.72;2570677;30;138183;-39
2021/09/02 01:55:43;;;;;;;11.30;6.03;;;9.80;99.90;;;8.07;98.44;102385.28;2568324;30;138758;-40
2021/09/02 01:58:11;;;;;;;11.48;6.35;;;9.70;99.90;;;8.04;98.59;102385.59;2568982;30;138361;-39
2021/09/02 02:00:40;;;;;;;9.68;5.38;;;9.70;99.90;;;8.03;98.80;102383.91;2567771;30;138654;-39
2021/09/02 02:03:07;;;;;;;11.15;5.90;;;9.70;99.90;;;8.01;98.85;102388.66;2569018;30;137728;-39
2021/09/02 02:05:35;;;;;;;10.65;5.72;;;9.70;99.90;;;7.96;98.78;102386.38;2568892;30;137255;-39
2021/09/02 02:08:04;;;;;;;10.70;5.93;;;9.60;99.90;;;7.95;98.84;102386.53;2569514;30;137337;-39
2021/09/02 02:10:32;;;;;;;10.32;5.70;;;9.60;99.90;;;7.92;98.72;102383.13;2568273;30;138368;-39
2021/09/02 02:13:03;;;;;;;11.45;6.22;;;9.60;99.90;;;7.89;98.69;102378.00;2569061;30;138902;-39
2021/09/02 02:15:31;;;;;;;13.57;5.85;;;9.50;99.90;;;7.88;98.68;102389.03;2568495;30;136783;-39
2021/09/02 02:17:58;;;;;;;11.60;6.05;;;9.60;99.90;;;7.83;98.61;102377.78;2568182;30;138259;-39
2021/09/02 02:20:26;;;;;;;13.20;6.95;;;9.50;99.90;;;7.85;98.84;102386.66;2570423;30;136628;-40
2021/09/02 02:22:53;;;;;;;10.05;5.97;;;9.50;99.90;;;7.84;98.92;102385.78;2566243;30;138205;-40
2021/09/02 02:25:21;;;;;;;12.55;6.32;;;9.50;99.90;;;7.81;99.07;102385.22;2568789;30;138167;-40
2021/09/02 02:27:48;;;;;;;11.20;6.03;;;9.50;99.90;;;7.80;99.07;102383.50;2567122;30;137914;-40
2021/09/02 02:30:18;;;;;;;11.43;6.15;;;9.50;99.90;;;7.75;98.98;102378.56;2570066;30;137473;-40
2021/09/02 02:32:47;;;;;;;11.25;5.85;;;9.40;99.90;;;7.75;99.13;102375.84;2569239;30;137242;-39
2021/09/02 02:35:17;;;;;;;10.75;5.45;;;9.40;99.90;;;7.71;99.19;102378.00;2570118;30;137470;-39
2021/09/02 02:37:45;;;;;;;9.82;6.22;;;9.40;99.90;;;7.65;99.03;102365.06;2568630;30;138216;-40
2021/09/02 02:40:14;;;;;;;;;;;9.40;99.90;;;7.68;99.08;102369.31;2571274;30;136788;-40
2021/09/02 02:42:43;;;;;;;8.38;5.15;;;9.40;99.90;;;7.67;99.18;102375.75;2568758;30;138616;-39
2021/09/02 02:45:12;;;;;;;10.18;5.68;;;9.40;99.90;;;7.66;99.22;102379.47;2567074;30;137343;-39
2021/09/02 02:47:40;;;;;;;9.88;5.75;;;9.30;99.90;;;7.68;99.19;102374.75;2566219;30;137659;-39
2021/09/02 02:50:09;;;;;;;10.88;6.13;;;9.40;99.90;;;7.75;99.44;102381.28;2568505;30;137712;-40
2021/09/02 02:52:37;;;;;;;12.75;6.43;;;9.40;99.90;;;7.85;99.86;102375.78;2566090;30;137753;-39
2021/09/02 02:55:05;;;;;;;12.98;6.40;;;9.40;99.90;;;7.97;100.00;102371.78;2570121;30;137749;-39
2021/09/02 02:57:33;;;;;;;12.30;7.20;;;9.50;99.90;;;8.09;100.00;102371.53;2568941;30;138038;-39
2021/09/02 03:00:01;;;;;;;11.30;6.53;;;9.60;99.90;;;8.21;100.00;102371.09;2568236;30;138233;-40
2021/09/02 03:02:28;;;;;;;14.57;7.82;;;9.70;99.90;;;8.31;100.00;102367.44;2568184;30;137626;-39
2021/09/02 03:04:56;;;;;;;14.30;7.50;;;9.80;99.90;;;8.40;100.00;102368.38;2571688;30;137076;-39
2021/09/02 03:07:23;;;;;;;13.52;6.88;;;9.90;99.90;;;8.46;100.00;102360.41;2570216;30;137933;-40
2021/09/02 03:09:51;;;;;;;14.13;7.47;;;10.00;99.90;;;8.53;100.00;102362.53;2569460;30;138281;-39
2021/09/02 03:12:18;;;;;;;13.25;7.22;;;10.10;99.90;;;8.60;100.00;102360.84;2568554;30;137956;-39
2021/09/02 03:14:46;;;;;;;13.80;7.13;;;10.10;99.90;;;8.67;100.00;102358.34;2568808;30;138181;-39
2021/09/02 03:17:13;;;;;;;15.10;7.40;;;10.20;99.90;;;8.74;100.00;102357.50;2567728;30;138395;-39
2021/09/02 03:19:41;;;;;;;14.30;7.10;;;10.30;99.90;;;8.78;100.00;102348.03;2569629;30;137432;-39
2021/09/02 03:22:08;;;;;;;13.98;7.03;;;10.30;99.90;;;8.90;100.00;102358.63;2567905;30;139269;-39
2021/09/02 03:24:36;;;;;;;13.20;7.07;;;10.40;99.90;;;8.97;100.00;102367.81;2570220;30;137384;-39
2021/09/02 03:27:04;;;;;;;14.68;7.18;;;10.50;99.90;;;9.04;100.00;102354.41;2566945;30;138818;-39
2021/09/02 03:29:32;;;;;;;13.85;7.30;;;10.50;99.90;;;9.10;100.00;102352.91;2571844;30;138173;-39
2021/09/02 03:32:03;;;;;;;13.85;7.63;;;10.60;99.90;;;9.19;100.00;102354.63;2569842;30;137389;-39
2021/09/02 03:34:31;;;;;;;13.23;7.55;;;10.70;99.90;;;9.25;100.00;102351.22;2569985;30;137692;-40
2021/09/02 03:36:59;;;;;;;14.90;7.43;;;10.80;99.90;;;9.30;100.00;102348.88;2569997;30;138153;-39
2021/09/02 03:39:26;;;;;;;12.68;6.88;;;10.80;99.90;;;9.33;100.00;102347.69;2571465;30;136908;-40
2021/09/02 03:41:54;;;;;;;14.05;7.25;;;10.80;99.90;;;9.37;100.00;102354.50;2568334;30;138243;-40
2021/09/02 03:44:21;;;;;;;14.10;7.28;;;10.90;99.90;;;9.42;100.00;102354.00;2569222;30;137555;-39
2021/09/02 03:46:49;;;;;;;17.02;7.95;;;10.90;99.90;;;9.44;100.00;102344.66;2568441;30;138241;-39
2021/09/02 03:49:16;;;;;;;16.75;8.23;;;10.90;99.90;;;9.45;100.00;102345.50;2570019;30;138089;-39
2021/09/02 03:51:44;;;;;;;16.42;8.55;;;11.00;99.90;;;9.46;100.00;102345.34;2569693;30;138007;-39
2021/09/02 03:54:11;;;;;;;14.38;7.88;;;11.00;99.90;;;9.46;100.00;102348.06;2569449;30;137458;-40
2021/09/02 03:56:39;;;;;;;13.07;7.30;;;11.00;99.90;;;9.49;100.00;102358.63;2569295;30;139365;-39
2021/09/02 03:59:06;;;;;;;13.43;7.15;;;11.00;99.90;;;9.50;100.00;102348.56;2572568;30;137541;-39
2021/09/02 04:01:34;;;;;;;16.60;7.93;;;11.00;99.90;;;9.51;100.00;102350.25;2569974;30;138287;-39
2021/09/02 04:04:02;;;;;;;12.05;6.82;;;11.00;99.90;;;9.50;100.00;102356.72;2569799;30;136948;-39
2021/09/02 04:06:29;;;;;;;13.07;7.45;;;11.00;99.90;;;9.50;100.00;102349.44;2568993;30;137481;-39
2021/09/02 04:08:57;;;;;;;14.82;7.70;;;11.00;99.90;;;9.52;100.00;102354.69;2569597;30;137429;-39
2021/09/02 04:11:24;;;;;;;13.93;7.35;;;11.10;99.90;;;9.50;100.00;102354.00;2566602;30;137359;-39
2021/09/02 04:13:52;;;;;;;17.48;8.02;;;11.00;99.90;;;9.48;100.00;102354.19;2568770;30;136899;-39
2021/09/02 04:16:20;;;;;;;14.63;7.70;;;11.00;99.90;;;9.46;100.00;102347.19;2569984;30;138300;-40
2021/09/02 04:18:47;;;;;;;13.25;7.10;;;11.00;99.90;;;9.44;100.00;102343.78;2569811;30;137392;-40
2021/09/02 04:21:15;;;;;;;13.60;6.85;;;11.00;99.90;;;9.40;100.00;102345.16;2569706;30;136894;-40
2021/09/02 04:23:44;;;;;;;13.27;6.43;;;11.00;99.90;;;9.35;100.00;102345.66;2569138;30;137776;-40
2021/09/02 04:26:11;;;;;;;12.00;6.38;;;10.90;99.90;;;9.29;100.00;102340.88;2565463;30;137367;-40
2021/09/02 04:28:39;;;;;;;11.82;6.97;;;10.90;99.90;;;9.22;100.00;102340.69;2570094;30;137284;-39
2021/09/02 04:31:06;;;;;;;14.07;7.20;;;10.80;99.90;;;9.16;100.00;102338.63;2567729;30;139539;-40
2021/09/02 04:33:34;;;;;;;12.88;6.57;;;10.80;99.90;;;9.07;100.00;102333.16;2569104;30;137473;-40
2021/09/02 04:36:02;;;;;;;13.48;6.75;;;10.70;99.90;;;8.98;100.00;102339.59;2570668;30;139102;-39
2021/09/02 04:38:29;;;;;;;13.20;7.57;;;10.60;99.90;;;8.90;100.00;102347.72;2569649;30;138708;-39
2021/09/02 04:40:57;;;;;;;12.20;6.85;;;10.50;99.90;;;8.84;100.00;102342.94;2567475;30;138107;-40
2021/09/02 04:43:25;;;;;;;12.90;6.60;;;10.50;99.90;;;8.76;100.00;102344.63;2569826;30;138483;-39
2021/09/02 04:45:53;;;;;;;13.00;6.45;;;10.40;99.90;;;8.72;100.00;102345.94;2565805;30;138223;-40
2021/09/02 04:48:22;;;;;;;13.00;7.07;;;10.40;99.90;;;8.68;100.00;102339.13;2568588;30;137480;-39
2021/09/02 04:50:51;;;;;;;14.25;7.43;;;10.30;99.90;;;8.65;100.00;102341.34;2568465;30;139078;-39
2021/09/02 04:53:20;;;;;;;13.57;7.03;;;10.30;99.90;;;8.61;100.00;102343.53;2567624;30;137407;-39
2021/09/02 04:55:47;;;;;;;14.40;7.20;;;10.20;99.90;;;8.54;100.00;102335.16;2569173;30;136837;-40
2021/09/02 04:58:16;;;;;;;14.73;6.95;;;10.20;99.90;;;8.48;100.00;102336.59;2569404;30;138552;-39
2021/09/02 05:00:44;;;;;;;14.20;6.93;;;10.10;99.90;;;8.51;100.00;102345.53;2569787;30;138348;-39
2021/09/02 05:03:12;;;;;;;11.40;5.95;;;10.10;99.90;;;8.48;100.00;102350.19;2570078;30;136792;-39
2021/09/02 05:05:40;;;;;;;11.45;6.13;;;10.10;99.90;;;8.46;100.00;102343.25;2568813;30;136826;-40
2021/09/02 05:08:08;;;;;;;13.43;6.72;;;10.10;99.90;;;8.44;100.00;102334.38;2569495;30;138504;-40
2021/09/02 05:10:35;;;;;;;12.85;6.38;;;10.00;99.90;;;8.45;100.00;102331.50;2566744;30;137592;-39
2021/09/02 05:13:03;;;;;;;12.52;6.15;;;10.10;99.90;;;8.46;100.00;102333.19;2568437;30;136821;-40
2021/09/02 05:15:31;;;;;;;14.55;7.05;;;10.00;99.90;;;8.47;100.00;102331.34;2567357;30;138103;-39
2021/09/02 05:17:59;;;;;;;13.55;7.07;;;10.10;99.90;;;8.49;100.00;102330.22;2571013;30;137021;-39
2021/09/02 05:20:27;;;;;;;14.88;6.95;;;10.10;99.90;;;8.49;100.00;102324.78;2569139;30;139542;-40
2021/09/02 05:22:54;;;;;;;14.25;7.38;;;10.10;99.90;;;8.41;100.00;102316.50;2569231;30;137429;-39
2021/09/02 05:25:22;;;;;;;13.48;6.95;;;10.10;99.90;;;8.52;100.00;102329.03;2567328;30;137688;-40
2021/09/02 05:27:49;;;;;;;12.32;6.50;;;10.10;99.90;;;8.54;100.00;102332.44;2569772;30;138378;-40
2021/09/02 05:30:17;;;;;;;15.25;6.32;;;10.10;99.90;;;8.58;100.00;102330.25;2568091;30;137702;-39
2021/09/02 05:32:45;;;;;;;;;;;10.10;99.90;;;8.60;100.00;102331.78;2571008;30;136681;-40
2021/09/02 05:35:14;;;;;;;11.93;6.80;;;10.20;99.90;;;8.67;100.00;102339.31;2569831;30;139560;-39
2021/09/02 05:37:42;;;;;;;13.60;7.50;;;10.20;99.90;;;8.68;100.00;102336.41;2566481;30;137238;-39
2021/09/02 05:40:11;;;;;;;13.57;6.72;;;10.20;99.90;;;8.78;100.00;102345.31;2569897;30;138659;-39
2021/09/02 05:42:39;;;;;;;11.75;6.07;;;10.30;99.90;;;8.82;100.00;102344.97;2569237;30;138396;-40
2021/09/02 05:45:08;;;;;;;15.00;6.85;;;10.40;99.90;;;8.88;100.00;102339.72;2567890;30;137450;-39
2021/09/02 05:47:36;;;;;;;13.48;6.85;;;10.40;99.90;;;8.87;100.00;102335.28;2567375;30;137640;-39
2021/09/02 05:50:06;;;;;;;17.58;7.70;;;10.40;99.90;;;8.99;100.00;102337.72;2569345;30;137146;-39
2021/09/02 05:52:34;;;;;;;17.92;8.07;;;10.50;99.90;;;9.05;100.00;102335.22;2569170;30;137544;-40
2021/09/02 05:55:02;;;;;;;17.70;8.20;;;10.50;99.90;;;9.13;100.00;102337.06;2568609;30;139192;-39
2021/09/02 05:57:29;;;;;;;15.00;7.85;;;10.60;99.90;;;9.20;100.00;102337.28;2565182;30;137735;-40
2021/09/02 05:59:57;;;;;;;17.25;7.50;;;10.60;99.90;;;9.27;100.00;102332.84;2569875;30;137151;-40
2021/09/02 06:02:25;;;;;;;14.95;8.20;;;10.70;99.90;;;9.40;100.00;102332.38;2568488;30;137836;-39
2021/09/02 06:04:52;;;;;;;18.20;8.07;;;10.80;99.90;;;9.52;100.00;102334.78;2570130;30;138404;-39
2021/09/02 06:07:20;;;;;;;23.10;11.02;;;10.90;99.90;;;9.67;100.00;102333.06;2567914;30;137418;-40
2021/09/02 06:09:48;;;;;;;;;;;11.00;99.90;;;9.82;100.00;102341.47;2566337;30;138355;-40
2021/09/02 06:12:15;;;;;;;19.27;9.35;;;11.20;99.90;;;9.97;100.00;102333.44;2569782;30;136940;-40
2021/09/02 06:14:43;;;;;;;20.00;9.00;;;11.30;99.90;;;10.07;100.00;102333.22;2569264;30;139037;-40
2021/09/02 06:17:10;;;;;;;17.75;9.38;;;11.40;99.90;;;10.16;100.00;102348.59;2568544;30;138161;-39
2021/09/02 06:19:39;;;;;;;27.25;10.75;;;11.50;99.90;;;10.34;100.00;102337.47;2567839;30;139188;-40
2021/09/02 06:22:06;;;;;;;25.77;11.88;;;11.60;99.90;;;10.52;100.00;102341.91;2570331;30;138333;-39
2021/09/02 06:24:34;;;;;;;31.88;12.65;;;11.80;99.90;;;10.70;100.00;102341.66;2568222;30;137865;-40
2021/09/02 06:27:02;;;;;;;25.15;11.82;;;12.00;99.90;;;10.83;100.00;102337.50;2569289;30;136760;-40
2021/09/02 06:29:29;;;;;;;;;;;12.10;99.90;;;10.97;100.00;102346.81;2567786;30;138207;-39
2021/09/02 06:31:57;;;;;;;26.60;10.93;;;12.20;99.90;;;11.10;100.00;102338.91;2570758;30;136953;-40
2021/09/02 06:34:25;;;;;;;29.02;12.50;;;12.40;99.90;;;11.25;100.00;102340.88;2567243;30;139145;-40
2021/09/02 06:36:53;;;;;;;22.27;11.20;;;12.50;99.90;;;11.33;100.00;102338.94;2568185;30;138348;-41
2021/09/02 06:39:20;;;;;;;26.85;10.90;;;12.60;99.90;;;11.47;100.00;102341.94;2567456;30;138288;-38
2021/09/02 06:41:48;;;;;;;28.83;12.55;;;12.70;99.90;;;11.60;100.00;102342.19;2567442;30;137770;-41
2021/09/02 06:44:15;;;;;;;27.23;11.32;;;12.80;99.90;;;11.74;100.00;102350.63;2567371;30;138517;-38
2021/09/02 06:46:43;;;;;;;24.83;11.25;;;12.90;99.90;;;11.89;100.00;102343.31;2566900;30;137669;-39
2021/09/02 06:49:11;;;;;;;24.88;11.73;;;13.10;99.90;;;12.05;100.00;102342.34;2567671;30;138523;-41
2021/09/02 06:51:39;;;;;;;23.77;11.82;;;13.20;99.90;;;12.20;100.00;102353.34;2567112;30;138261;-41
2021/09/02 06:54:07;;;;;;;24.92;11.27;;;13.30;99.90;;;12.36;99.58;102344.13;2567613;30;137559;-41
2021/09/02 06:56:35;;;;;;;24.45;11.48;;;13.40;99.90;;;12.50;98.19;102345.16;2568364;30;137562;-41
2021/09/02 06:59:03;;;;;;;21.35;10.75;;;13.60;99.90;;;12.56;97.62;102353.66;2566234;30;137493;-41
2021/09/02 07:01:30;;;;;;;23.23;10.95;;;13.70;99.90;;;12.61;98.08;102346.56;2568399;30;136796;-40
2021/09/02 07:03:58;;;;;;;23.10;10.65;;;13.80;99.90;;;12.65;98.13;102360.72;2568628;30;137881;-40
2021/09/02 07:06:25;;;;;;;21.00;10.25;;;13.90;99.90;;;12.71;97.99;102359.13;2568102;30;136935;-40
2021/09/02 07:08:53;;;;;;;18.38;9.98;;;13.90;99.90;;;12.82;98.02;102355.06;2568188;30;138346;-41
2021/09/02 07:11:21;;;;;;;21.90;11.02;;;14.00;99.90;;;12.97;98.63;102361.34;2567946;30;137510;-41
2021/09/02 07:13:49;;;;;;;23.75;11.15;;;14.10;99.90;;;13.15;99.76;102362.84;2568296;30;138621;-41
2021/09/02 07:16:16;;;;;;;26.02;11.70;;;14.30;99.90;;;13.29;99.59;102370.19;2568620;30;136790;-41
2021/09/02 07:18:44;;;;;;;20.75;10.88;;;14.40;99.90;;;13.42;98.58;102360.41;2568207;30;138801;-41
2021/09/02 07:21:11;;;;;;;20.70;11.40;;;14.50;99.90;;;13.52;97.81;102364.56;2567104;30;138332;-41
2021/09/02 07:23:39;;;;;;;25.27;10.98;;;14.60;99.90;;;13.65;97.51;102363.00;2568478;30;138202;-41
2021/09/02 07:26:07;;;;;;;23.85;10.77;;;14.70;99.90;;;13.74;95.76;102366.47;2566883;30;137928;-41
2021/09/02 07:28:35;;;;;;;24.25;10.70;;;14.80;99.90;;;13.77;92.41;102368.81;2569153;30;137706;-40
2021/09/02 07:31:03;;;;;;;22.23;10.68;;;14.90;99.90;;;13.90;92.77;102371.69;2568666;30;137723;-41
2021/09/02 07:33:30;;;;;;;20.83;10.45;;;15.00;99.90;;;14.02;92.07;102362.91;2567426;30;137396;-40
2021/09/02 07:35:58;;;;;;;20.60;10.32;;;15.10;99.90;;;14.23;92.38;102371.09;2568718;30;137085;-41
2021/09/02 07:38:25;;;;;;;18.70;9.63;;;15.20;99.90;;;14.24;87.22;102375.56;2568085;30;138517;-40
2021/09/02 07:40:53;;;;;;;20.17;10.07;;;15.30;99.90;;;14.44;89.10;102368.50;2568295;30;138243;-40
2021/09/02 07:43:28;;;;;;;20.10;10.48;;;15.40;99.90;;;14.75;89.13;102384.59;2566998;30;137908;-41
2021/09/02 07:45:56;;;;;;;21.08;10.32;;;15.70;99.90;;;14.98;87.56;102372.44;2566263;30;138306;-41
2021/09/02 07:48:24;;;;;;;20.63;9.80;;;15.90;99.90;;;15.29;87.83;102384.00;2569684;30;138266;-41
2021/09/02 07:50:52;;;;;;;18.40;10.13;;;16.10;99.90;;;15.52;86.00;102375.38;2566891;30;137375;-41
2021/09/02 07:53:21;;;;;;;21.50;10.13;;;16.30;99.90;;;15.58;83.88;102373.69;2569182;30;137175;-41
2021/09/02 07:55:48;;;;;;;19.63;9.27;;;16.50;99.90;;;15.64;82.97;102381.13;2567860;30;137560;-41
2021/09/02 07:58:16;;;;;;;17.92;9.50;;;16.50;99.90;;;15.67;82.41;102376.06;2568479;30;138422;-41
2021/09/02 08:00:44;;;;;;;21.27;9.80;;;16.60;99.90;;;15.60;81.99;102377.91;2567553;30;137210;-41
2021/09/02 08:03:11;;;;;;;18.80;9.35;;;16.60;99.90;;;15.59;84.05;102387.22;2565246;30;138197;-41
2021/09/02 08:05:39;;;;;;;18.55;9.77;;;16.70;99.90;;;15.63;84.51;102384.91;2568046;30;137299;-41
2021/09/02 08:08:07;;;;;;;19.35;9.15;;;16.70;99.90;;;15.60;80.50;102386.16;2567121;30;137192;-39
2021/09/02 08:10:35;;;;;;;21.13;9.27;;;16.70;99.90;;;15.72;82.12;102385.56;2569483;30;137683;-42
2021/09/02 08:13:02;;;;;;;;;;;16.70;99.90;;;15.85;82.68;102387.50;2568643;30;139237;-41
2021/09/02 08:15:30;;;;;;;18.48;9.00;;;16.80;99.90;;;16.13;83.72;102378.22;2567596;30;137225;-39
2021/09/02 08:17:58;;;;;;;19.73;9.68;;;17.00;99.90;;;16.30;83.25;102379.47;2567261;30;137710;-41
2021/09/02 08:20:27;;;;;;;17.25;9.43;;;17.10;99.90;;;16.51;80.66;102380.28;2568104;30;138189;-41
2021/09/02 08:22:55;;;;;;;16.48;9.02;;;17.30;99.90;;;16.65;80.20;102381.13;2567926;30;138251;-42
2021/09/02 08:25:22;;;;;;;19.20;9.25;;;17.50;99.90;;;16.74;79.62;102390.00;2568108;30;137219;-41
2021/09/02 08:27:51;;;;;;;17.92;8.80;;;17.60;99.90;;;16.86;80.10;102384.66;2567595;30;137684;-41
2021/09/02 08:30:22;;;;;;;16.83;8.73;;;17.70;99.90;;;17.03;79.85;102376.78;2565769;30;137595;-39
2021/09/02 08:32:52;;;;;;;14.43;8.40;;;17.80;99.90;;;17.07;78.75;102367.00;2568839;30;137384;-41
2021/09/02 08:35:29;;;;;;;18.42;9.45;;;17.90;99.90;;;17.07;78.64;102362.34;2568059;30;137562;-39
2021/09/02 08:38:05;;;;;;;16.60;9.27;;;18.00;99.90;;;17.04;77.03;102375.72;2568218;30;137290;-41
2021/09/02 08:40:37;;;;;;;18.95;9.10;;;18.00;99.90;;;17.05;75.42;102363.63;2568952;30;137457;-41
2021/09/02 08:43:05;;;;;;;16.48;8.02;;;18.00;99.90;;;17.02;77.41;102362.16;2565523;30;139286;-41
2021/09/02 08:45:32;;;;;;;14.18;8.02;;;18.00;99.90;;;17.07;77.44;102367.88;2567977;30;137644;-41
2021/09/02 08:48:01;;;;;;;16.35;8.23;;;18.00;99.90;;;17.10;76.62;102367.44;2568109;30;137686;-41
2021/09/02 08:50:34;;;;;;;20.40;8.85;;;18.10;99.90;;;17.19;76.40;102368.03;2565323;30;137472;-41
2021/09/02 08:53:04;;;;;;;18.05;7.80;;;18.10;99.90;;;17.27;75.74;102366.94;2569039;30;138126;-43
2021/09/02 08:55:34;;;;;;;13.70;8.43;;;18.10;99.90;;;17.28;74.86;102368.63;2568074;30;136946;-41
2021/09/02 08:58:03;;;;;;;18.58;8.70;;;18.20;99.90;;;17.49;77.42;102369.34;2569638;30;138259;-41
2021/09/02 09:00:31;;;;;;;12.88;7.65;;;18.30;99.90;;;17.63;76.01;102370.97;2568420;30;138415;-41
2021/09/02 09:03:04;;;;;;;;;;;18.40;99.90;;;17.77;76.52;102374.47;2568261;30;138292;-39
2021/09/02 09:05:35;;;;;;;15.50;7.45;;;18.50;99.90;;;17.84;75.13;102368.91;2568847;30;136989;-41
2021/09/02 09:08:12;;;;;;;17.70;8.77;;;18.70;99.90;;;17.98;75.44;102377.94;2567540;30;137072;-43
2021/09/02 09:10:40;;;;;;;14.65;7.88;;;18.80;99.90;;;18.01;72.81;102376.63;2568490;30;136835;-39
2021/09/02 09:13:09;;;;;;;13.75;7.38;;;18.80;99.90;;;18.18;74.80;102375.03;2568192;30;138159;-39
2021/09/02 09:15:40;;;;;;;15.60;7.63;;;18.90;99.90;;;18.24;71.54;102368.59;2568058;30;137061;-39
2021/09/02 09:18:24;;;;;;;20.83;8.88;;;19.00;99.90;;;18.25;71.95;102361.16;2567922;30;138200;-39
2021/09/02 09:21:06;;;;;;;15.52;8.55;;;19.10;99.90;;;18.30;71.58;102365.97;2565459;30;137305;-39
2021/09/02 09:24:03;;;;;;;16.92;8.20;;;19.20;99.90;;;18.33;72.25;102363.63;2568077;30;137233;-39
2021/09/02 09:26:33;;;;;;;15.40;7.95;;;19.20;99.90;;;18.42;72.02;102366.94;2567437;30;137376;-41
2021/09/02 09:29:18;;;;;;;15.85;8.10;;;19.30;99.90;;;18.51;74.28;102362.78;2568067;30;137101;-41
2021/09/02 09:31:45;;;;;;;14.68;7.40;;;19.40;99.90;;;18.67;70.67;102366.03;2566110;30;137601;-39
2021/09/02 09:34:13;;;;;;;14.90;7.57;;;19.50;99.90;;;18.73;69.56;102373.41;2568575;30;137251;-39
2021/09/02 09:36:41;;;;;;;16.60;7.85;;;19.50;99.90;;;18.87;68.97;102363.03;2566923;30;138082;-39
2021/09/02 09:39:13;;;;;;;12.15;6.75;;;19.60;99.90;;;18.94;68.00;102363.78;2567859;30;138302;-42
2021/09/02 09:41:47;;;;;;;12.43;6.95;;;19.70;99.90;;;19.03;68.08;102364.34;2567663;30;137241;-39
2021/09/02 09:44:19;;;;;;;13.93;7.47;;;19.80;99.90;;;19.09;69.71;102368.94;2567170;30;137983;-39
2021/09/02 09:47:08;;;;;;;14.60;7.07;;;19.90;99.90;;;19.23;67.93;102361.34;2569882;30;137652;-38
2021/09/02 09:49:57;;;;;;;16.05;7.72;;;20.00;99.90;;;19.27;67.89;102356.16;2567906;30;138767;-41
2021/09/02 09:52:43;;;;;;;14.43;6.97;;;20.10;99.90;;;19.40;70.96;102350.47;2567729;30;137479;-38
2021/09/02 09:55:16;;;;;;;14.15;7.45;;;20.20;99.90;;;19.54;67.19;102353.03;2568103;30;137368;-41
2021/09/02 09:57:46;;;;;;;15.52;8.02;;;20.30;99.90;;;19.68;69.23;102353.66;2567383;30;136794;-39
2021/09/02 10:00:20;;;;;;;13.35;7.32;;;20.40;99.90;;;19.65;67.24;102355.00;2569355;30;137114;-39
2021/09/02 10:02:51;;;;;;;12.63;6.60;;;20.50;99.90;;;19.70;65.38;102354.25;2568121;30;137047;-39
2021/09/02 10:05:21;;;;;;;14.35;7.60;;;20.50;99.90;;;19.73;65.34;102339.94;2568231;30;138381;-39
2021/09/02 10:07:51;;;;;;;15.77;7.18;;;20.60;99.90;;;19.67;67.02;102352.81;2568061;30;137387;-39
2021/09/02 10:10:19;;;;;;;13.18;7.80;;;20.60;99.90;;;19.51;63.69;102359.88;2569934;30;137479;-39
2021/09/02 10:12:48;;;;;;;15.23;6.95;;;20.40;99.90;;;19.37;65.13;102345.41;2568839;30;137588;-39
2021/09/02 10:15:21;;;;;;;12.10;6.90;;;20.40;99.90;;;19.33;67.81;102352.47;2565338;30;138338;-39
2021/09/02 10:17:52;;;;;;;13.38;6.38;;;20.40;99.90;;;19.17;70.01;102344.84;2568160;30;138073;-39
2021/09/02 10:20:25;;;;;;;12.65;6.22;;;20.20;99.90;;;19.44;69.67;102344.44;2566842;30;136940;-39
2021/09/02 10:22:58;;;;;;;13.18;6.50;;;20.30;99.90;;;19.69;67.15;102328.50;2568356;30;137054;-42
2021/09/02 10:25:34;;;;;;;11.80;6.18;;;20.50;99.90;;;19.84;65.45;102327.19;2568151;30;137370;-39
2021/09/02 10:28:10;;;;;;;15.63;7.05;;;20.60;99.90;;;19.97;65.43;102327.03;2567623;30;137519;-39
2021/09/02 10:30:47;;;;;;;14.65;6.97;;;20.70;99.90;;;20.10;68.58;102331.47;2568651;30;137520;-39
2021/09/02 10:33:40;;;;;;;13.25;6.15;;;20.90;99.90;;;20.30;61.73;102334.97;2568132;30;137378;-41
2021/09/02 10:36:10;;;;;;;12.95;6.18;;;21.00;99.90;;;20.46;63.15;102328.69;2568796;30;137796;-39
2021/09/02 10:38:58;;;;;;;9.55;5.65;;;21.10;99.90;;;20.89;65.54;102325.72;2567030;30;137425;-39
2021/09/02 10:41:35;;;;;;;10.73;5.70;;;21.50;99.90;;;20.88;64.22;102337.91;2568238;30;138230;-41
2021/09/02 10:44:20;;;;;;;10.43;6.20;;;21.60;99.90;;;20.71;65.06;102316.47;2567020;30;137413;-41
2021/09/02 10:46:51;;;;;;;11.50;5.97;;;21.60;99.90;;;20.34;61.33;102314.84;2566965;30;140000;-39
2021/09/02 10:49:36;;;;;;;10.18;5.32;;;21.40;99.90;;;20.29;64.69;102316.66;2568416;30;137173;-39